sensor_id;sensor_type;location;lat;lon;timestamp;P1;durP1;ratioP1;P2;durP2;ratioP2
33138;SDS011;19501;50.948;5.316;2023-04-15T00:01:20;20.65;;;8.48;;
33138;SDS011;19501;50.948;5.316;2023-04-15T00:03:46;21.55;;;8.93;;
33138;SDS011;19501;50.948;5.316;2023-04-15T00:06:12;25.73;;;10.43;;
33138;SDS011;19501;50.948;5.316;2023-04-15T00:08:38;25.80;;;10.63;;
33138;SDS011;19501;50.948;5.316;2023-04-15T00:11:04;21.98;;;9.57;;
33138;SDS011;19501;50.948;5.316;2023-04-15T00:13:32;22.27;;;8.85;;
33138;SDS011;19501;50.948;5.316;2023-04-15T00:15:58;23.60;;;9.75;;
33138;SDS011;19501;50.948;5.316;2023-04-15T00:18:26;22.30;;;9.32;;
33138;SDS011;19501;50.948;5.316;2023-04-15T00:20:53;21.40;;;9.07;;
33138;SDS011;19501;50.948;5.316;2023-04-15T00:23:19;20.42;;;8.88;;
33138;SDS011;19501;50.948;5.316;2023-04-15T00:25:45;25.25;;;10.15;;
33138;SDS011;19501;50.948;5.316;2023-04-15T00:28:11;21.15;;;8.90;;
33138;SDS011;19501;50.948;5.316;2023-04-15T00:30:36;22.40;;;9.32;;
33138;SDS011;19501;50.948;5.316;2023-04-15T00:33:02;20.10;;;8.55;;
33138;SDS011;19501;50.948;5.316;2023-04-15T00:35:28;24.83;;;9.57;;
33138;SDS011;19501;50.948;5.316;2023-04-15T00:37:58;23.33;;;9.65;;
33138;SDS011;19501;50.948;5.316;2023-04-15T00:40:23;25.38;;;10.02;;
33138;SDS011;19501;50.948;5.316;2023-04-15T00:42:50;22.00;;;9.15;;
33138;SDS011;19501;50.948;5.316;2023-04-15T00:45:16;23.83;;;8.73;;
33138;SDS011;19501;50.948;5.316;2023-04-15T00:47:42;24.45;;;8.32;;
33138;SDS011;19501;50.948;5.316;2023-04-15T00:50:08;21.77;;;8.73;;
33138;SDS011;19501;50.948;5.316;2023-04-15T00:52:35;26.35;;;9.68;;
33138;SDS011;19501;50.948;5.316;2023-04-15T00:55:01;27.17;;;9.55;;
33138;SDS011;19501;50.948;5.316;2023-04-15T00:57:28;24.58;;;9.82;;
33138;SDS011;19501;50.948;5.316;2023-04-15T00:59:55;21.80;;;9.05;;
33138;SDS011;19501;50.948;5.316;2023-04-15T01:02:23;22.50;;;8.55;;
33138;SDS011;19501;50.948;5.316;2023-04-15T01:04:49;20.95;;;8.43;;
33138;SDS011;19501;50.948;5.316;2023-04-15T01:07:15;20.20;;;8.60;;
33138;SDS011;19501;50.948;5.316;2023-04-15T01:09:41;20.30;;;8.32;;
33138;SDS011;19501;50.948;5.316;2023-04-15T01:12:08;23.77;;;8.15;;
33138;SDS011;19501;50.948;5.316;2023-04-15T01:14:40;19.15;;;7.95;;
33138;SDS011;19501;50.948;5.316;2023-04-15T01:17:06;19.27;;;8.15;;
33138;SDS011;19501;50.948;5.316;2023-04-15T01:19:32;23.45;;;8.18;;
33138;SDS011;19501;50.948;5.316;2023-04-15T01:21:58;18.02;;;7.50;;
33138;SDS011;19501;50.948;5.316;2023-04-15T01:24:25;20.02;;;7.80;;
33138;SDS011;19501;50.948;5.316;2023-04-15T01:26:52;18.05;;;7.47;;
33138;SDS011;19501;50.948;5.316;2023-04-15T01:29:18;20.83;;;7.82;;
33138;SDS011;19501;50.948;5.316;2023-04-15T01:31:53;21.20;;;7.97;;
33138;SDS011;19501;50.948;5.316;2023-04-15T01:34:20;23.13;;;8.10;;
33138;SDS011;19501;50.948;5.316;2023-04-15T01:36:46;23.23;;;8.45;;
33138;SDS011;19501;50.948;5.316;2023-04-15T01:39:12;20.33;;;7.68;;
33138;SDS011;19501;50.948;5.316;2023-04-15T01:41:37;20.85;;;7.65;;
33138;SDS011;19501;50.948;5.316;2023-04-15T01:44:04;22.48;;;7.40;;
33138;SDS011;19501;50.948;5.316;2023-04-15T01:46:31;20.73;;;7.40;;
33138;SDS011;19501;50.948;5.316;2023-04-15T01:48:56;21.05;;;6.82;;
33138;SDS011;19501;50.948;5.316;2023-04-15T01:51:22;19.23;;;7.32;;
33138;SDS011;19501;50.948;5.316;2023-04-15T01:53:48;20.42;;;6.90;;
33138;SDS011;19501;50.948;5.316;2023-04-15T01:56:13;20.80;;;7.15;;
33138;SDS011;19501;50.948;5.316;2023-04-15T01:58:40;17.17;;;6.68;;
33138;SDS011;19501;50.948;5.316;2023-04-15T02:01:06;17.30;;;6.93;;
33138;SDS011;19501;50.948;5.316;2023-04-15T02:03:34;17.42;;;6.38;;
33138;SDS011;19501;50.948;5.316;2023-04-15T02:06:01;22.08;;;8.80;;
33138;SDS011;19501;50.948;5.316;2023-04-15T02:08:28;23.80;;;9.65;;
33138;SDS011;19501;50.948;5.316;2023-04-15T02:10:54;26.77;;;8.98;;
33138;SDS011;19501;50.948;5.316;2023-04-15T02:13:20;20.48;;;6.95;;
33138;SDS011;19501;50.948;5.316;2023-04-15T02:15:46;20.33;;;7.32;;
33138;SDS011;19501;50.948;5.316;2023-04-15T02:18:12;20.95;;;7.30;;
33138;SDS011;19501;50.948;5.316;2023-04-15T02:20:39;19.17;;;7.25;;
33138;SDS011;19501;50.948;5.316;2023-04-15T02:23:05;24.42;;;6.85;;
33138;SDS011;19501;50.948;5.316;2023-04-15T02:25:32;18.90;;;7.22;;
33138;SDS011;19501;50.948;5.316;2023-04-15T02:27:58;17.75;;;6.30;;
33138;SDS011;19501;50.948;5.316;2023-04-15T02:30:26;20.00;;;7.25;;
33138;SDS011;19501;50.948;5.316;2023-04-15T02:32:52;18.88;;;6.72;;
33138;SDS011;19501;50.948;5.316;2023-04-15T02:35:17;19.77;;;7.50;;
33138;SDS011;19501;50.948;5.316;2023-04-15T02:37:44;20.63;;;7.13;;
33138;SDS011;19501;50.948;5.316;2023-04-15T02:40:10;22.58;;;7.68;;
33138;SDS011;19501;50.948;5.316;2023-04-15T02:42:39;19.75;;;6.97;;
33138;SDS011;19501;50.948;5.316;2023-04-15T02:45:05;22.10;;;7.80;;
33138;SDS011;19501;50.948;5.316;2023-04-15T02:47:32;22.50;;;7.07;;
33138;SDS011;19501;50.948;5.316;2023-04-15T02:49:58;18.13;;;7.68;;
33138;SDS011;19501;50.948;5.316;2023-04-15T02:52:25;18.48;;;7.03;;
33138;SDS011;19501;50.948;5.316;2023-04-15T02:54:51;21.20;;;7.25;;
33138;SDS011;19501;50.948;5.316;2023-04-15T02:57:21;17.60;;;7.38;;
33138;SDS011;19501;50.948;5.316;2023-04-15T02:59:47;21.15;;;8.30;;
33138;SDS011;19501;50.948;5.316;2023-04-15T03:02:12;19.15;;;7.10;;
33138;SDS011;19501;50.948;5.316;2023-04-15T03:04:38;23.35;;;7.53;;
33138;SDS011;19501;50.948;5.316;2023-04-15T03:07:04;20.23;;;7.70;;
33138;SDS011;19501;50.948;5.316;2023-04-15T03:09:30;22.27;;;7.95;;
33138;SDS011;19501;50.948;5.316;2023-04-15T03:11:56;20.85;;;7.15;;
33138;SDS011;19501;50.948;5.316;2023-04-15T03:14:21;23.35;;;8.75;;
33138;SDS011;19501;50.948;5.316;2023-04-15T03:16:47;21.15;;;7.43;;
33138;SDS011;19501;50.948;5.316;2023-04-15T03:19:14;18.20;;;7.78;;
33138;SDS011;19501;50.948;5.316;2023-04-15T03:21:40;19.70;;;7.07;;
33138;SDS011;19501;50.948;5.316;2023-04-15T03:24:06;17.88;;;7.45;;
33138;SDS011;19501;50.948;5.316;2023-04-15T03:26:31;19.55;;;7.45;;
33138;SDS011;19501;50.948;5.316;2023-04-15T03:28:57;19.95;;;7.25;;
33138;SDS011;19501;50.948;5.316;2023-04-15T03:31:23;18.80;;;7.45;;
33138;SDS011;19501;50.948;5.316;2023-04-15T03:33:49;19.85;;;7.28;;
33138;SDS011;19501;50.948;5.316;2023-04-15T03:36:14;21.08;;;7.97;;
33138;SDS011;19501;50.948;5.316;2023-04-15T03:38:40;18.33;;;7.03;;
33138;SDS011;19501;50.948;5.316;2023-04-15T03:41:07;18.90;;;7.20;;
33138;SDS011;19501;50.948;5.316;2023-04-15T03:43:33;20.23;;;8.45;;
33138;SDS011;19501;50.948;5.316;2023-04-15T03:45:59;20.13;;;7.95;;
33138;SDS011;19501;50.948;5.316;2023-04-15T03:48:27;20.17;;;7.43;;
33138;SDS011;19501;50.948;5.316;2023-04-15T03:50:53;20.65;;;7.95;;
33138;SDS011;19501;50.948;5.316;2023-04-15T03:53:20;19.33;;;7.07;;
33138;SDS011;19501;50.948;5.316;2023-04-15T03:55:46;21.63;;;7.97;;
33138;SDS011;19501;50.948;5.316;2023-04-15T03:58:13;20.38;;;7.85;;
33138;SDS011;19501;50.948;5.316;2023-04-15T04:00:41;17.33;;;7.50;;
33138;SDS011;19501;50.948;5.316;2023-04-15T04:03:07;17.42;;;7.47;;
33138;SDS011;19501;50.948;5.316;2023-04-15T04:05:33;17.30;;;7.18;;
33138;SDS011;19501;50.948;5.316;2023-04-15T04:08:01;20.40;;;7.35;;
33138;SDS011;19501;50.948;5.316;2023-04-15T04:10:26;24.30;;;9.23;;
33138;SDS011;19501;50.948;5.316;2023-04-15T04:12:52;22.40;;;8.45;;
33138;SDS011;19501;50.948;5.316;2023-04-15T04:15:18;18.05;;;7.40;;
33138;SDS011;19501;50.948;5.316;2023-04-15T04:17:43;20.00;;;7.30;;
33138;SDS011;19501;50.948;5.316;2023-04-15T04:20:09;18.92;;;7.10;;
33138;SDS011;19501;50.948;5.316;2023-04-15T04:22:38;21.05;;;7.88;;
33138;SDS011;19501;50.948;5.316;2023-04-15T04:25:05;23.52;;;9.00;;
33138;SDS011;19501;50.948;5.316;2023-04-15T04:27:32;17.65;;;6.80;;
33138;SDS011;19501;50.948;5.316;2023-04-15T04:29:58;25.73;;;8.23;;
33138;SDS011;19501;50.948;5.316;2023-04-15T04:32:24;21.20;;;7.60;;
33138;SDS011;19501;50.948;5.316;2023-04-15T04:34:50;20.50;;;7.88;;
33138;SDS011;19501;50.948;5.316;2023-04-15T04:37:16;20.73;;;7.05;;
33138;SDS011;19501;50.948;5.316;2023-04-15T04:39:41;18.60;;;7.32;;
33138;SDS011;19501;50.948;5.316;2023-04-15T04:42:07;22.02;;;7.28;;
33138;SDS011;19501;50.948;5.316;2023-04-15T04:44:33;19.27;;;7.28;;
33138;SDS011;19501;50.948;5.316;2023-04-15T04:46:58;20.35;;;7.55;;
33138;SDS011;19501;50.948;5.316;2023-04-15T04:49:24;18.20;;;6.50;;
33138;SDS011;19501;50.948;5.316;2023-04-15T04:51:50;18.27;;;7.20;;
33138;SDS011;19501;50.948;5.316;2023-04-15T04:54:16;19.42;;;7.07;;
33138;SDS011;19501;50.948;5.316;2023-04-15T04:56:41;21.92;;;7.28;;
33138;SDS011;19501;50.948;5.316;2023-04-15T04:59:09;18.23;;;6.68;;
33138;SDS011;19501;50.948;5.316;2023-04-15T05:01:35;21.30;;;7.32;;
33138;SDS011;19501;50.948;5.316;2023-04-15T05:04:01;17.25;;;6.82;;
33138;SDS011;19501;50.948;5.316;2023-04-15T05:06:28;21.20;;;7.43;;
33138;SDS011;19501;50.948;5.316;2023-04-15T05:08:55;16.40;;;6.45;;
33138;SDS011;19501;50.948;5.316;2023-04-15T05:11:20;20.83;;;7.43;;
33138;SDS011;19501;50.948;5.316;2023-04-15T05:13:46;16.30;;;6.82;;
33138;SDS011;19501;50.948;5.316;2023-04-15T05:16:12;22.25;;;7.90;;
33138;SDS011;19501;50.948;5.316;2023-04-15T05:18:37;25.30;;;7.68;;
33138;SDS011;19501;50.948;5.316;2023-04-15T05:21:05;22.60;;;7.30;;
33138;SDS011;19501;50.948;5.316;2023-04-15T05:23:33;17.15;;;7.20;;
33138;SDS011;19501;50.948;5.316;2023-04-15T05:25:59;19.40;;;7.18;;
33138;SDS011;19501;50.948;5.316;2023-04-15T05:28:25;21.25;;;7.32;;
33138;SDS011;19501;50.948;5.316;2023-04-15T05:30:51;20.83;;;7.70;;
33138;SDS011;19501;50.948;5.316;2023-04-15T05:33:17;19.83;;;7.20;;
33138;SDS011;19501;50.948;5.316;2023-04-15T05:35:43;22.65;;;7.90;;
33138;SDS011;19501;50.948;5.316;2023-04-15T05:38:08;21.48;;;7.25;;
33138;SDS011;19501;50.948;5.316;2023-04-15T05:40:34;20.88;;;8.13;;
33138;SDS011;19501;50.948;5.316;2023-04-15T05:43:00;17.45;;;7.32;;
33138;SDS011;19501;50.948;5.316;2023-04-15T05:45:25;22.42;;;7.72;;
33138;SDS011;19501;50.948;5.316;2023-04-15T05:47:51;25.70;;;7.68;;
33138;SDS011;19501;50.948;5.316;2023-04-15T05:50:18;20.80;;;7.30;;
33138;SDS011;19501;50.948;5.316;2023-04-15T05:52:47;19.50;;;7.43;;
33138;SDS011;19501;50.948;5.316;2023-04-15T05:55:12;24.30;;;8.35;;
33138;SDS011;19501;50.948;5.316;2023-04-15T05:57:38;26.35;;;8.35;;
33138;SDS011;19501;50.948;5.316;2023-04-15T06:00:06;25.50;;;8.82;;
33138;SDS011;19501;50.948;5.316;2023-04-15T06:02:33;26.77;;;8.70;;
33138;SDS011;19501;50.948;5.316;2023-04-15T06:04:59;23.80;;;9.38;;
33138;SDS011;19501;50.948;5.316;2023-04-15T06:07:24;25.45;;;10.15;;
33138;SDS011;19501;50.948;5.316;2023-04-15T06:09:50;25.05;;;11.05;;
33138;SDS011;19501;50.948;5.316;2023-04-15T06:12:16;23.25;;;9.10;;
33138;SDS011;19501;50.948;5.316;2023-04-15T06:14:41;32.95;;;9.77;;
33138;SDS011;19501;50.948;5.316;2023-04-15T06:17:07;21.13;;;9.93;;
33138;SDS011;19501;50.948;5.316;2023-04-15T06:19:33;24.38;;;10.20;;
33138;SDS011;19501;50.948;5.316;2023-04-15T06:22:00;23.45;;;9.95;;
33138;SDS011;19501;50.948;5.316;2023-04-15T06:24:27;29.88;;;10.75;;
33138;SDS011;19501;50.948;5.316;2023-04-15T06:26:53;28.65;;;11.00;;
33138;SDS011;19501;50.948;5.316;2023-04-15T06:29:21;23.23;;;10.80;;
33138;SDS011;19501;50.948;5.316;2023-04-15T06:31:47;28.13;;;11.95;;
33138;SDS011;19501;50.948;5.316;2023-04-15T06:34:13;29.38;;;10.82;;
33138;SDS011;19501;50.948;5.316;2023-04-15T06:36:39;24.73;;;11.55;;
33138;SDS011;19501;50.948;5.316;2023-04-15T06:39:04;25.45;;;12.27;;
33138;SDS011;19501;50.948;5.316;2023-04-15T06:41:30;26.55;;;12.43;;
33138;SDS011;19501;50.948;5.316;2023-04-15T06:43:56;28.52;;;13.15;;
33138;SDS011;19501;50.948;5.316;2023-04-15T06:46:21;26.73;;;13.07;;
33138;SDS011;19501;50.948;5.316;2023-04-15T06:48:47;28.10;;;12.48;;
33138;SDS011;19501;50.948;5.316;2023-04-15T06:51:13;23.85;;;12.18;;
33138;SDS011;19501;50.948;5.316;2023-04-15T06:53:39;25.90;;;12.30;;
33138;SDS011;19501;50.948;5.316;2023-04-15T06:56:07;29.10;;;13.02;;
33138;SDS011;19501;50.948;5.316;2023-04-15T06:58:33;26.88;;;12.32;;
33138;SDS011;19501;50.948;5.316;2023-04-15T07:00:59;25.83;;;13.02;;
33138;SDS011;19501;50.948;5.316;2023-04-15T07:03:25;26.38;;;12.52;;
33138;SDS011;19501;50.948;5.316;2023-04-15T07:05:51;28.27;;;12.20;;
33138;SDS011;19501;50.948;5.316;2023-04-15T07:08:17;28.23;;;12.38;;
33138;SDS011;19501;50.948;5.316;2023-04-15T07:10:44;26.63;;;12.48;;
33138;SDS011;19501;50.948;5.316;2023-04-15T07:13:11;28.25;;;12.43;;
33138;SDS011;19501;50.948;5.316;2023-04-15T07:15:37;25.70;;;11.75;;
33138;SDS011;19501;50.948;5.316;2023-04-15T07:18:02;25.33;;;11.93;;
33138;SDS011;19501;50.948;5.316;2023-04-15T07:20:28;28.63;;;12.38;;
33138;SDS011;19501;50.948;5.316;2023-04-15T07:22:56;22.60;;;10.75;;
33138;SDS011;19501;50.948;5.316;2023-04-15T07:25:22;24.23;;;11.52;;
33138;SDS011;19501;50.948;5.316;2023-04-15T07:27:48;26.58;;;11.52;;
33138;SDS011;19501;50.948;5.316;2023-04-15T07:30:13;24.83;;;10.85;;
33138;SDS011;19501;50.948;5.316;2023-04-15T07:32:40;23.83;;;11.07;;
33138;SDS011;19501;50.948;5.316;2023-04-15T07:35:06;25.77;;;10.77;;
33138;SDS011;19501;50.948;5.316;2023-04-15T07:37:33;23.27;;;10.68;;
33138;SDS011;19501;50.948;5.316;2023-04-15T07:39:59;29.58;;;11.00;;
33138;SDS011;19501;50.948;5.316;2023-04-15T07:42:25;24.25;;;9.90;;
33138;SDS011;19501;50.948;5.316;2023-04-15T07:44:51;26.38;;;10.18;;
33138;SDS011;19501;50.948;5.316;2023-04-15T07:47:17;24.77;;;10.32;;
33138;SDS011;19501;50.948;5.316;2023-04-15T07:49:42;21.98;;;10.23;;
33138;SDS011;19501;50.948;5.316;2023-04-15T07:52:08;21.95;;;10.07;;
33138;SDS011;19501;50.948;5.316;2023-04-15T07:54:34;24.92;;;10.23;;
33138;SDS011;19501;50.948;5.316;2023-04-15T07:56:59;22.48;;;10.63;;
33138;SDS011;19501;50.948;5.316;2023-04-15T07:59:28;22.10;;;10.35;;
33138;SDS011;19501;50.948;5.316;2023-04-15T08:01:55;23.55;;;9.88;;
33138;SDS011;19501;50.948;5.316;2023-04-15T08:04:21;25.50;;;11.20;;
33138;SDS011;19501;50.948;5.316;2023-04-15T08:06:47;27.88;;;11.93;;
33138;SDS011;19501;50.948;5.316;2023-04-15T08:09:14;24.45;;;11.55;;
33138;SDS011;19501;50.948;5.316;2023-04-15T08:11:40;24.98;;;11.75;;
33138;SDS011;19501;50.948;5.316;2023-04-15T08:14:05;27.42;;;13.55;;
33138;SDS011;19501;50.948;5.316;2023-04-15T08:16:31;28.33;;;13.05;;
33138;SDS011;19501;50.948;5.316;2023-04-15T08:18:57;26.55;;;13.35;;
33138;SDS011;19501;50.948;5.316;2023-04-15T08:21:23;28.65;;;13.75;;
33138;SDS011;19501;50.948;5.316;2023-04-15T08:23:50;31.40;;;14.57;;
33138;SDS011;19501;50.948;5.316;2023-04-15T08:26:17;27.52;;;14.52;;
33138;SDS011;19501;50.948;5.316;2023-04-15T08:28:44;30.27;;;15.45;;
33138;SDS011;19501;50.948;5.316;2023-04-15T08:31:11;28.13;;;14.60;;
33138;SDS011;19501;50.948;5.316;2023-04-15T08:33:38;35.28;;;15.90;;
33138;SDS011;19501;50.948;5.316;2023-04-15T08:36:04;28.55;;;14.68;;
33138;SDS011;19501;50.948;5.316;2023-04-15T08:38:31;28.80;;;14.55;;
33138;SDS011;19501;50.948;5.316;2023-04-15T08:40:57;29.75;;;14.18;;
33138;SDS011;19501;50.948;5.316;2023-04-15T08:43:26;25.58;;;12.80;;
33138;SDS011;19501;50.948;5.316;2023-04-15T08:45:54;29.48;;;12.73;;
33138;SDS011;19501;50.948;5.316;2023-04-15T08:48:23;26.48;;;12.45;;
33138;SDS011;19501;50.948;5.316;2023-04-15T08:50:52;26.20;;;12.73;;
33138;SDS011;19501;50.948;5.316;2023-04-15T08:53:18;25.50;;;12.57;;
33138;SDS011;19501;50.948;5.316;2023-04-15T08:55:45;26.02;;;11.05;;
33138;SDS011;19501;50.948;5.316;2023-04-15T08:58:15;25.98;;;11.50;;
33138;SDS011;19501;50.948;5.316;2023-04-15T09:00:41;24.52;;;11.13;;
33138;SDS011;19501;50.948;5.316;2023-04-15T09:03:07;23.38;;;11.20;;
33138;SDS011;19501;50.948;5.316;2023-04-15T09:05:33;22.45;;;10.88;;
33138;SDS011;19501;50.948;5.316;2023-04-15T09:08:03;26.92;;;12.00;;
33138;SDS011;19501;50.948;5.316;2023-04-15T09:10:30;23.00;;;10.07;;
33138;SDS011;19501;50.948;5.316;2023-04-15T09:12:56;23.73;;;11.18;;
33138;SDS011;19501;50.948;5.316;2023-04-15T09:15:25;22.23;;;10.57;;
33138;SDS011;19501;50.948;5.316;2023-04-15T09:17:53;22.33;;;11.25;;
33138;SDS011;19501;50.948;5.316;2023-04-15T09:20:19;24.05;;;10.75;;
33138;SDS011;19501;50.948;5.316;2023-04-15T09:22:45;21.95;;;10.05;;
33138;SDS011;19501;50.948;5.316;2023-04-15T09:27:50;23.45;;;10.15;;
33138;SDS011;19501;50.948;5.316;2023-04-15T09:30:18;24.30;;;10.73;;
33138;SDS011;19501;50.948;5.316;2023-04-15T09:32:54;28.50;;;12.25;;
33138;SDS011;19501;50.948;5.316;2023-04-15T09:35:24;25.50;;;10.68;;
33138;SDS011;19501;50.948;5.316;2023-04-15T09:38:00;21.75;;;9.10;;
33138;SDS011;19501;50.948;5.316;2023-04-15T09:40:39;19.13;;;8.43;;
33138;SDS011;19501;50.948;5.316;2023-04-15T09:43:06;22.25;;;10.45;;
33138;SDS011;19501;50.948;5.316;2023-04-15T09:45:34;22.58;;;10.27;;
33138;SDS011;19501;50.948;5.316;2023-04-15T09:48:19;21.02;;;9.55;;
33138;SDS011;19501;50.948;5.316;2023-04-15T09:50:53;21.48;;;10.43;;
33138;SDS011;19501;50.948;5.316;2023-04-15T09:53:23;20.60;;;9.40;;
33138;SDS011;19501;50.948;5.316;2023-04-15T09:55:57;20.67;;;9.70;;
33138;SDS011;19501;50.948;5.316;2023-04-15T10:01:01;19.25;;;8.50;;
33138;SDS011;19501;50.948;5.316;2023-04-15T10:03:30;18.58;;;7.93;;
33138;SDS011;19501;50.948;5.316;2023-04-15T10:05:58;20.05;;;8.70;;
33138;SDS011;19501;50.948;5.316;2023-04-15T10:08:26;18.08;;;7.28;;
33138;SDS011;19501;50.948;5.316;2023-04-15T10:10:56;16.48;;;6.78;;
33138;SDS011;19501;50.948;5.316;2023-04-15T10:13:24;17.05;;;7.18;;
33138;SDS011;19501;50.948;5.316;2023-04-15T10:15:57;19.25;;;6.93;;
33138;SDS011;19501;50.948;5.316;2023-04-15T10:18:41;17.17;;;5.50;;
33138;SDS011;19501;50.948;5.316;2023-04-15T10:21:11;14.82;;;4.80;;
33138;SDS011;19501;50.948;5.316;2023-04-15T10:23:42;14.40;;;5.95;;
33138;SDS011;19501;50.948;5.316;2023-04-15T10:26:09;21.25;;;7.43;;
33138;SDS011;19501;50.948;5.316;2023-04-15T10:28:43;15.13;;;5.75;;
33138;SDS011;19501;50.948;5.316;2023-04-15T10:31:11;15.23;;;5.28;;
33138;SDS011;19501;50.948;5.316;2023-04-15T10:33:40;17.42;;;5.53;;
33138;SDS011;19501;50.948;5.316;2023-04-15T10:36:07;15.88;;;5.38;;
33138;SDS011;19501;50.948;5.316;2023-04-15T10:38:40;12.60;;;5.18;;
33138;SDS011;19501;50.948;5.316;2023-04-15T10:41:14;15.00;;;5.00;;
33138;SDS011;19501;50.948;5.316;2023-04-15T10:43:48;9.95;;;4.40;;
33138;SDS011;19501;50.948;5.316;2023-04-15T10:46:20;14.90;;;4.93;;
33138;SDS011;19501;50.948;5.316;2023-04-15T10:48:51;11.35;;;3.78;;
33138;SDS011;19501;50.948;5.316;2023-04-15T10:51:27;11.35;;;4.10;;
33138;SDS011;19501;50.948;5.316;2023-04-15T10:54:00;13.25;;;4.60;;
33138;SDS011;19501;50.948;5.316;2023-04-15T10:56:29;12.18;;;5.20;;
33138;SDS011;19501;50.948;5.316;2023-04-15T10:58:57;12.68;;;5.32;;
33138;SDS011;19501;50.948;5.316;2023-04-15T11:01:48;13.10;;;5.10;;
33138;SDS011;19501;50.948;5.316;2023-04-15T11:12:49;11.63;;;4.82;;
33138;SDS011;19501;50.948;5.316;2023-04-15T11:23:19;11.65;;;4.90;;
33138;SDS011;19501;50.948;5.316;2023-04-15T11:26:02;16.48;;;5.75;;
33138;SDS011;19501;50.948;5.316;2023-04-15T11:28:33;12.73;;;5.43;;
33138;SDS011;19501;50.948;5.316;2023-04-15T11:31:05;11.88;;;4.95;;
33138;SDS011;19501;50.948;5.316;2023-04-15T11:33:35;14.77;;;5.65;;
33138;SDS011;19501;50.948;5.316;2023-04-15T11:36:03;11.27;;;4.57;;
33138;SDS011;19501;50.948;5.316;2023-04-15T11:38:29;10.23;;;4.45;;
33138;SDS011;19501;50.948;5.316;2023-04-15T11:40:55;8.27;;;4.00;;
33138;SDS011;19501;50.948;5.316;2023-04-15T11:43:21;9.93;;;4.45;;
33138;SDS011;19501;50.948;5.316;2023-04-15T11:45:57;10.80;;;4.32;;
33138;SDS011;19501;50.948;5.316;2023-04-15T11:50:56;9.45;;;4.30;;
33138;SDS011;19501;50.948;5.316;2023-04-15T11:53:36;6.88;;;3.75;;
33138;SDS011;19501;50.948;5.316;2023-04-15T11:56:03;5.57;;;3.42;;
33138;SDS011;19501;50.948;5.316;2023-04-15T11:58:30;8.85;;;3.58;;
33138;SDS011;19501;50.948;5.316;2023-04-15T12:00:58;6.22;;;3.50;;
33138;SDS011;19501;50.948;5.316;2023-04-15T12:03:26;7.28;;;3.42;;
33138;SDS011;19501;50.948;5.316;2023-04-15T12:11:20;6.22;;;3.10;;
33138;SDS011;19501;50.948;5.316;2023-04-15T12:13:46;6.63;;;3.42;;
33138;SDS011;19501;50.948;5.316;2023-04-15T12:16:16;5.05;;;2.83;;
33138;SDS011;19501;50.948;5.316;2023-04-15T12:18:45;6.30;;;3.35;;
33138;SDS011;19501;50.948;5.316;2023-04-15T12:21:12;9.80;;;3.85;;
33138;SDS011;19501;50.948;5.316;2023-04-15T12:23:39;7.70;;;3.53;;
33138;SDS011;19501;50.948;5.316;2023-04-15T12:26:25;8.25;;;3.90;;
33138;SDS011;19501;50.948;5.316;2023-04-15T12:29:02;5.55;;;2.97;;
33138;SDS011;19501;50.948;5.316;2023-04-15T12:31:31;6.55;;;2.85;;
33138;SDS011;19501;50.948;5.316;2023-04-15T12:33:57;7.30;;;3.03;;
33138;SDS011;19501;50.948;5.316;2023-04-15T12:36:24;8.13;;;3.30;;
33138;SDS011;19501;50.948;5.316;2023-04-15T12:38:51;8.57;;;3.10;;
33138;SDS011;19501;50.948;5.316;2023-04-15T12:41:16;7.63;;;3.33;;
33138;SDS011;19501;50.948;5.316;2023-04-15T12:43:45;7.40;;;3.13;;
33138;SDS011;19501;50.948;5.316;2023-04-15T12:46:11;6.93;;;2.80;;
33138;SDS011;19501;50.948;5.316;2023-04-15T12:48:40;8.65;;;3.35;;
33138;SDS011;19501;50.948;5.316;2023-04-15T12:51:05;7.75;;;3.33;;
33138;SDS011;19501;50.948;5.316;2023-04-15T12:53:31;6.43;;;3.20;;
33138;SDS011;19501;50.948;5.316;2023-04-15T12:55:57;9.43;;;3.25;;
33138;SDS011;19501;50.948;5.316;2023-04-15T12:58:22;6.65;;;2.63;;
33138;SDS011;19501;50.948;5.316;2023-04-15T13:00:48;4.15;;;2.67;;
33138;SDS011;19501;50.948;5.316;2023-04-15T13:03:14;9.00;;;3.38;;
33138;SDS011;19501;50.948;5.316;2023-04-15T13:05:40;9.93;;;3.80;;
33138;SDS011;19501;50.948;5.316;2023-04-15T13:08:06;8.20;;;3.85;;
33138;SDS011;19501;50.948;5.316;2023-04-15T13:10:32;7.35;;;3.08;;
33138;SDS011;19501;50.948;5.316;2023-04-15T13:13:02;7.85;;;3.03;;
33138;SDS011;19501;50.948;5.316;2023-04-15T13:15:29;6.22;;;3.20;;
33138;SDS011;19501;50.948;5.316;2023-04-15T13:17:54;7.95;;;3.05;;
33138;SDS011;19501;50.948;5.316;2023-04-15T13:20:20;7.15;;;3.40;;
33138;SDS011;19501;50.948;5.316;2023-04-15T13:22:46;5.43;;;3.13;;
33138;SDS011;19501;50.948;5.316;2023-04-15T13:25:12;6.47;;;2.80;;
33138;SDS011;19501;50.948;5.316;2023-04-15T13:27:37;6.53;;;3.00;;
33138;SDS011;19501;50.948;5.316;2023-04-15T13:30:04;6.15;;;3.42;;
33138;SDS011;19501;50.948;5.316;2023-04-15T13:32:30;10.13;;;3.55;;
33138;SDS011;19501;50.948;5.316;2023-04-15T13:34:56;11.45;;;4.15;;
33138;SDS011;19501;50.948;5.316;2023-04-15T13:37:25;9.93;;;3.90;;
33138;SDS011;19501;50.948;5.316;2023-04-15T13:39:51;6.00;;;3.42;;
33138;SDS011;19501;50.948;5.316;2023-04-15T13:42:17;8.82;;;3.47;;
33138;SDS011;19501;50.948;5.316;2023-04-15T13:44:43;5.28;;;3.10;;
33138;SDS011;19501;50.948;5.316;2023-04-15T13:47:11;7.40;;;3.33;;
33138;SDS011;19501;50.948;5.316;2023-04-15T13:49:38;5.28;;;3.20;;
33138;SDS011;19501;50.948;5.316;2023-04-15T13:52:04;7.18;;;3.30;;
33138;SDS011;19501;50.948;5.316;2023-04-15T13:54:30;6.68;;;3.15;;
33138;SDS011;19501;50.948;5.316;2023-04-15T13:56:56;8.65;;;2.92;;
33138;SDS011;19501;50.948;5.316;2023-04-15T13:59:22;5.68;;;3.13;;
33138;SDS011;19501;50.948;5.316;2023-04-15T14:01:48;9.60;;;3.65;;
33138;SDS011;19501;50.948;5.316;2023-04-15T14:04:13;7.35;;;3.00;;
33138;SDS011;19501;50.948;5.316;2023-04-15T14:06:39;6.32;;;3.00;;
33138;SDS011;19501;50.948;5.316;2023-04-15T14:09:05;6.28;;;3.25;;
33138;SDS011;19501;50.948;5.316;2023-04-15T14:11:31;6.35;;;3.63;;
33138;SDS011;19501;50.948;5.316;2023-04-15T14:13:59;8.65;;;3.45;;
33138;SDS011;19501;50.948;5.316;2023-04-15T14:16:25;6.43;;;2.90;;
33138;SDS011;19501;50.948;5.316;2023-04-15T14:18:50;5.38;;;2.85;;
33138;SDS011;19501;50.948;5.316;2023-04-15T14:21:16;5.07;;;3.17;;
33138;SDS011;19501;50.948;5.316;2023-04-15T14:23:42;7.43;;;3.15;;
33138;SDS011;19501;50.948;5.316;2023-04-15T14:26:08;6.13;;;2.97;;
33138;SDS011;19501;50.948;5.316;2023-04-15T14:28:36;6.75;;;3.17;;
33138;SDS011;19501;50.948;5.316;2023-04-15T14:31:03;7.22;;;3.15;;
33138;SDS011;19501;50.948;5.316;2023-04-15T14:33:28;7.55;;;3.28;;
33138;SDS011;19501;50.948;5.316;2023-04-15T14:35:55;7.97;;;3.42;;
33138;SDS011;19501;50.948;5.316;2023-04-15T14:38:21;8.45;;;3.63;;
33138;SDS011;19501;50.948;5.316;2023-04-15T14:40:49;8.45;;;3.67;;
33138;SDS011;19501;50.948;5.316;2023-04-15T14:43:15;8.50;;;3.88;;
33138;SDS011;19501;50.948;5.316;2023-04-15T14:45:41;6.63;;;3.35;;
33138;SDS011;19501;50.948;5.316;2023-04-15T14:48:07;7.93;;;3.55;;
33138;SDS011;19501;50.948;5.316;2023-04-15T14:50:34;9.07;;;3.50;;
33138;SDS011;19501;50.948;5.316;2023-04-15T14:53:00;6.72;;;3.55;;
33138;SDS011;19501;50.948;5.316;2023-04-15T14:55:25;10.27;;;4.28;;
33138;SDS011;19501;50.948;5.316;2023-04-15T14:57:51;9.63;;;3.33;;
33138;SDS011;19501;50.948;5.316;2023-04-15T15:00:17;9.02;;;3.50;;
33138;SDS011;19501;50.948;5.316;2023-04-15T15:02:45;8.88;;;3.40;;